createdAt,value
2023-05-11T05:03:32.758Z,500.00
2023-05-11T05:04:36.261Z,500.00
2023-05-11T05:05:32.652Z,500.00
2023-05-11T05:06:32.689Z,500.00
2023-05-11T05:07:33.667Z,500.00
2023-05-11T05:10:03.447Z,500.00
2023-05-11T05:12:22.389Z,500.00
2023-05-11T05:14:41.930Z,500.00
2023-05-11T05:17:00.569Z,500.00
2023-05-11T05:18:00.541Z,500.00
2023-05-11T05:19:01.772Z,500.00
2023-05-11T05:20:01.578Z,500.00
2023-05-11T05:21:01.536Z,500.00
2023-05-11T05:22:00.509Z,443.00
2023-05-11T05:23:01.587Z,437.00
2023-05-11T05:24:00.503Z,416.00
2023-05-11T05:25:02.260Z,400.00
2023-05-11T05:26:03.597Z,412.00
2023-05-11T05:27:01.530Z,400.00
2023-05-11T05:28:01.483Z,400.00
2023-05-11T05:29:00.492Z,432.00
2023-05-11T05:30:01.462Z,496.00
2023-05-11T05:31:00.501Z,475.00
2023-05-11T05:39:11.925Z,500.00
2023-05-11T05:41:31.999Z,500.00
2023-05-11T05:46:40.556Z,500.00
2023-05-11T05:48:58.095Z,500.00
2023-05-11T05:52:36.843Z,500.00
2023-05-11T05:55:14.216Z,500.00
2023-05-11T05:58:33.894Z,500.00
2023-05-11T06:00:52.591Z,500.00
2023-05-11T06:02:06.221Z,500.00
2023-05-11T06:02:54.839Z,500.00
2023-05-11T06:03:53.485Z,500.00
2023-05-11T06:04:52.158Z,500.00
2023-05-11T06:05:52.032Z,500.00
2023-05-11T06:06:52.989Z,500.00
2023-05-11T06:08:05.952Z,500.00
2023-05-11T06:08:52.958Z,500.00
2023-05-11T06:09:52.965Z,500.00
2023-05-11T06:10:52.967Z,500.00
2023-05-11T06:11:53.088Z,500.00
2023-05-11T06:14:13.676Z,500.00
2023-05-11T06:16:30.898Z,500.00
2023-05-11T06:17:32.157Z,500.00
2023-05-11T06:18:30.845Z,500.00
2023-05-11T06:19:31.785Z,500.00
2023-05-11T06:21:52.209Z,500.00
2023-05-11T06:26:48.268Z,500.00
2023-05-11T06:27:48.559Z,500.00
2023-05-11T06:28:48.287Z,500.00
2023-05-11T06:29:49.402Z,500.00
2023-05-11T06:30:48.195Z,500.00
2023-05-11T06:31:49.283Z,500.00
2023-05-11T06:32:48.248Z,500.00
2023-05-11T06:33:48.260Z,422.00
2023-05-11T06:34:48.177Z,471.00
2023-05-11T06:35:49.446Z,555.00
2023-05-11T06:36:49.669Z,606.00
2023-05-11T06:37:49.053Z,549.00
2023-05-11T06:40:07.711Z,500.00
2023-05-11T06:41:08.656Z,500.00
2023-05-11T06:42:08.755Z,500.00
2023-05-11T06:43:08.668Z,500.00
2023-05-11T06:45:26.835Z,500.00
2023-05-11T06:46:28.182Z,500.00
2023-05-11T06:47:26.919Z,500.00
2023-05-11T06:48:26.996Z,500.00
2023-05-11T06:49:28.049Z,500.00
2023-05-11T06:50:28.456Z,523.00
2023-05-11T06:51:27.013Z,504.00
2023-05-11T06:52:28.803Z,500.00
2023-05-11T06:54:46.776Z,500.00
2023-05-11T06:55:47.063Z,500.00
2023-05-11T06:56:46.729Z,500.00
2023-05-11T06:59:06.401Z,500.00
2023-05-11T07:00:07.343Z,500.00
2023-05-11T07:01:06.431Z,500.00
2023-05-11T07:02:06.329Z,500.00
2023-05-11T07:03:07.392Z,500.00
2023-05-11T07:04:07.338Z,504.00
2023-05-11T07:05:06.354Z,517.00
2023-05-11T07:06:07.287Z,485.00
2023-05-11T07:07:07.290Z,500.00
2023-05-11T07:08:07.253Z,551.00
2023-05-11T07:09:07.272Z,514.00
2023-05-11T07:10:07.265Z,502.00
2023-05-11T07:11:07.234Z,501.00
2023-05-11T07:12:07.217Z,527.00
2023-05-11T07:13:07.198Z,555.00
2023-05-11T07:14:06.202Z,531.00
2023-05-11T07:15:07.225Z,502.00
2023-05-11T07:16:07.177Z,537.00
2023-05-11T07:17:07.221Z,557.00
2023-05-11T07:18:07.218Z,575.00
2023-05-11T07:19:06.274Z,562.00
2023-05-11T07:20:07.166Z,522.00
2023-05-11T07:21:06.167Z,512.00
2023-05-11T07:22:07.178Z,510.00
2023-05-11T07:23:07.152Z,520.00
2023-05-11T07:24:07.134Z,542.00
2023-05-11T07:25:06.143Z,496.00
2023-05-11T07:26:06.105Z,579.00
2023-05-11T07:27:06.164Z,541.00
2023-05-11T07:28:07.163Z,513.00
2023-05-11T07:29:06.119Z,521.00
2023-05-11T07:30:07.197Z,538.00
2023-05-11T07:31:07.226Z,584.00
2023-05-11T07:32:07.229Z,506.00
2023-05-11T07:33:07.218Z,521.00
2023-05-11T07:34:06.295Z,559.00
2023-05-11T07:35:07.074Z,567.00
2023-05-11T07:36:06.103Z,557.00
2023-05-11T07:37:07.087Z,536.00
2023-05-11T07:38:07.092Z,517.00
2023-05-11T07:39:07.117Z,558.00
2023-05-11T07:40:07.283Z,871.00
2023-05-11T07:41:08.870Z,1202.00
2023-05-11T07:42:06.225Z,1275.00
2023-05-11T07:43:06.225Z,786.00
2023-05-11T07:44:07.224Z,651.00
2023-05-11T07:45:06.288Z,771.00
2023-05-11T07:47:25.893Z,500.00
2023-05-11T07:48:25.726Z,500.00
2023-05-11T07:50:26.400Z,500.00
2023-05-11T07:51:26.264Z,500.00
2023-05-11T07:52:26.974Z,500.00
2023-05-11T07:53:27.177Z,500.00
2023-05-11T07:54:26.933Z,500.00
2023-05-11T07:55:25.913Z,472.00
2023-05-11T07:56:26.984Z,547.00
2023-05-11T07:57:27.087Z,485.00
2023-05-11T07:58:26.111Z,501.00
2023-05-11T08:00:45.537Z,500.00
2023-05-11T08:01:46.445Z,500.00
2023-05-11T08:02:46.633Z,500.00
2023-05-11T08:03:46.579Z,500.00
2023-05-11T08:04:46.517Z,500.00
2023-05-11T08:05:45.504Z,438.00
2023-05-11T08:06:45.493Z,498.00
2023-05-11T08:07:45.470Z,486.00
2023-05-11T08:08:45.447Z,495.00
2023-05-11T08:09:46.459Z,543.00
2023-05-11T08:10:46.437Z,510.00
2023-05-11T08:11:46.955Z,512.00
2023-05-11T08:14:05.143Z,500.00
2023-05-11T08:15:06.090Z,500.00
2023-05-11T08:16:05.141Z,500.00
2023-05-11T08:17:06.016Z,500.00
2023-05-11T08:18:06.119Z,500.00
2023-05-11T08:19:06.155Z,500.00
2023-05-11T08:20:06.017Z,500.00
2023-05-11T08:21:05.006Z,457.00
2023-05-11T08:22:04.975Z,485.00
2023-05-11T08:23:04.947Z,400.00
2023-05-11T08:24:04.985Z,400.00
2023-05-11T08:25:04.970Z,476.00
2023-05-11T08:26:05.983Z,436.00
2023-05-11T08:27:06.018Z,1227.00
2023-05-11T08:28:05.984Z,1024.00
2023-05-11T08:29:05.925Z,1296.00
2023-05-11T08:30:05.912Z,1547.00
2023-05-11T08:31:05.460Z,1299.00
2023-05-11T08:32:05.138Z,984.00
2023-05-11T08:34:13.718Z,573.00
2023-05-11T08:35:06.037Z,575.00
2023-05-11T08:36:04.877Z,583.00
2023-05-11T08:37:05.889Z,482.00
2023-05-11T08:38:05.898Z,516.00
2023-05-11T08:39:05.851Z,485.00
2023-05-11T08:40:05.851Z,463.00
2023-05-11T08:41:04.981Z,575.00
2023-05-11T08:42:04.946Z,598.00
2023-05-11T08:43:06.305Z,644.00
2023-05-11T08:44:06.005Z,860.00
2023-05-11T08:45:04.965Z,609.00
2023-05-11T08:46:05.956Z,566.00
2023-05-11T08:48:05.149Z,576.00
2023-05-11T08:49:05.926Z,532.00
2023-05-11T08:50:07.113Z,627.00
2023-05-11T08:52:24.088Z,500.00
2023-05-11T08:53:24.965Z,500.00
2023-05-11T08:54:23.958Z,500.00
2023-05-11T08:55:24.969Z,500.00
2023-05-11T08:56:24.025Z,500.00
2023-05-11T08:58:43.246Z,500.00
2023-05-11T08:59:44.281Z,500.00
2023-05-11T09:00:44.258Z,500.00
2023-05-11T09:01:43.265Z,500.00
2023-05-11T09:02:43.286Z,500.00
2023-05-11T09:03:44.265Z,528.00
2023-05-11T09:04:44.149Z,500.00
2023-05-11T09:05:43.344Z,511.00
2023-05-11T09:06:44.477Z,495.00
2023-05-11T09:07:44.365Z,522.00
2023-05-11T09:08:44.361Z,620.00
2023-05-11T09:09:44.444Z,663.00
2023-05-11T09:10:43.572Z,750.00
2023-05-11T09:11:44.561Z,685.00
2023-05-11T09:12:43.875Z,645.00
2023-05-11T09:15:03.276Z,500.00
2023-05-11T09:16:04.633Z,500.00
2023-05-11T09:17:04.438Z,500.00
2023-05-11T09:18:04.218Z,500.00
2023-05-11T09:19:04.408Z,500.00
2023-05-11T09:20:04.181Z,496.00
2023-05-11T09:21:04.154Z,500.00
2023-05-11T09:22:03.278Z,583.00
2023-05-11T09:23:03.301Z,567.00
2023-05-11T09:24:04.444Z,574.00
2023-05-11T09:25:03.351Z,618.00
2023-05-11T09:26:04.452Z,563.00
2023-05-11T09:27:04.098Z,578.00
2023-05-11T09:28:03.592Z,509.00
2023-05-11T09:29:03.856Z,556.00
2023-05-11T09:31:22.567Z,500.00
2023-05-11T09:32:22.186Z,500.00
2023-05-11T09:33:23.168Z,500.00
2023-05-11T09:34:23.231Z,500.00
2023-05-11T09:35:23.151Z,500.00
2023-05-11T09:36:23.162Z,458.00
2023-05-11T09:37:23.151Z,509.00
2023-05-11T09:38:23.159Z,831.00
2023-05-11T09:39:35.579Z,1810.00
2023-05-11T09:40:27.207Z,984.00
2023-05-11T09:41:23.169Z,1130.00
2023-05-11T09:42:22.223Z,647.00
2023-05-11T09:43:22.226Z,496.00
2023-05-11T09:44:23.874Z,462.00
2023-05-11T09:45:23.054Z,527.00
2023-05-11T09:46:22.074Z,552.00
2023-05-11T09:56:38.778Z,500.00
2023-05-11T09:59:02.071Z,500.00
2023-05-11T10:01:34.740Z,500.00
2023-05-11T10:02:35.876Z,500.00
2023-05-11T10:03:35.778Z,500.00
2023-05-11T10:04:35.757Z,500.00
2023-05-11T10:05:35.756Z,500.00
2023-05-11T10:06:35.712Z,500.00
2023-05-11T10:07:35.691Z,498.00
2023-05-11T10:08:34.665Z,423.00
2023-05-11T10:09:34.655Z,496.00
2023-05-11T10:10:35.726Z,510.00
2023-05-11T10:11:34.669Z,457.00
2023-05-11T10:12:35.672Z,464.00
2023-05-11T10:13:35.659Z,566.00
2023-05-11T10:14:35.622Z,616.00
2023-05-11T10:15:34.974Z,499.00
2023-05-11T10:17:54.872Z,500.00
2023-05-11T10:20:14.143Z,500.00
2023-05-11T10:21:13.911Z,500.00
2023-05-11T10:22:14.131Z,500.00
2023-05-11T10:24:33.870Z,500.00
2023-05-11T10:26:52.523Z,500.00
2023-05-11T10:29:11.944Z,500.00
2023-05-11T10:31:32.049Z,500.00
2023-05-11T10:32:31.871Z,500.00
2023-05-11T10:34:51.158Z,500.00
2023-05-11T10:37:10.369Z,500.00
2023-05-11T10:39:29.490Z,500.00
2023-05-11T10:40:30.474Z,500.00
2023-05-11T10:43:05.367Z,500.00
2023-05-11T10:44:06.208Z,500.00
2023-05-11T10:46:24.854Z,500.00
2023-05-11T10:48:43.638Z,500.00
2023-05-11T10:51:09.627Z,500.00
2023-05-11T10:52:03.650Z,500.00
2023-05-11T10:53:03.916Z,500.00
2023-05-11T10:54:03.576Z,500.00
2023-05-11T10:55:03.578Z,500.00
2023-05-11T10:56:03.552Z,500.00
2023-05-11T10:57:03.544Z,499.00
2023-05-11T10:58:03.571Z,578.00
2023-05-11T10:59:03.543Z,610.00
2023-05-11T11:00:02.532Z,556.00
2023-05-11T11:01:02.595Z,500.00
2023-05-11T11:02:04.047Z,500.00
2023-05-11T11:03:02.846Z,564.00
2023-05-11T11:05:22.562Z,500.00
2023-05-11T11:07:41.638Z,500.00
2023-05-11T11:08:41.598Z,500.00
2023-05-11T11:09:41.602Z,500.00
2023-05-11T11:10:41.569Z,500.00
2023-05-11T11:11:41.578Z,500.00
2023-05-11T11:12:41.590Z,476.00
2023-05-11T11:13:41.555Z,400.00
2023-05-11T11:14:42.556Z,425.00
2023-05-11T11:15:41.546Z,450.00
2023-05-11T11:16:42.758Z,496.00
2023-05-11T11:17:42.682Z,559.00
2023-05-11T11:20:01.198Z,500.00
2023-05-11T11:22:20.609Z,500.00
2023-05-11T11:23:20.333Z,500.00
2023-05-11T11:24:21.345Z,500.00
2023-05-11T11:26:40.066Z,500.00
2023-05-11T11:28:59.456Z,500.00
2023-05-11T11:29:59.156Z,500.00
2023-05-11T11:31:00.268Z,500.00
2023-05-11T11:32:00.293Z,500.00
2023-05-11T11:32:59.688Z,500.00
2023-05-11T11:35:31.922Z,500.00
2023-05-11T11:36:32.890Z,500.00
2023-05-11T11:37:32.791Z,500.00
2023-05-11T11:38:32.752Z,500.00
2023-05-11T11:39:32.122Z,500.00
2023-05-11T11:40:39.580Z,500.00
2023-05-11T11:41:32.806Z,479.00
2023-05-11T11:42:32.865Z,502.00
2023-05-11T11:44:51.180Z,500.00
2023-05-11T11:47:10.417Z,500.00
2023-05-11T11:48:11.369Z,500.00
2023-05-11T11:49:10.361Z,500.00
2023-05-11T11:50:10.237Z,500.00
2023-05-11T11:51:10.351Z,500.00
2023-05-11T11:52:10.330Z,500.00
2023-05-11T11:53:11.343Z,506.00
2023-05-11T11:54:11.396Z,559.00
2023-05-11T11:55:10.420Z,658.00
2023-05-11T11:56:10.466Z,777.00
2023-05-11T11:57:10.532Z,692.00
2023-05-11T11:58:10.533Z,551.00
2023-05-11T11:59:10.751Z,512.00
2023-05-11T12:00:10.727Z,459.00
2023-05-11T12:01:11.703Z,472.00
2023-05-11T12:02:10.735Z,473.00
2023-05-11T12:03:11.863Z,407.00
2023-05-11T12:04:11.001Z,400.00
2023-05-11T12:05:12.044Z,551.00
2023-05-11T12:06:11.857Z,1312.00
2023-05-11T12:07:11.909Z,1172.00
2023-05-11T12:08:11.950Z,1119.00
2023-05-11T12:09:11.981Z,1249.00
2023-05-11T12:10:11.090Z,1274.00
2023-05-11T12:11:11.034Z,973.00
2023-05-11T12:12:11.006Z,646.00
2023-05-11T12:13:11.008Z,599.00
2023-05-11T12:14:12.055Z,572.00
2023-05-11T12:15:12.006Z,569.00
2023-05-11T12:16:12.097Z,572.00
2023-05-11T12:17:12.033Z,500.00
2023-05-11T12:18:12.021Z,500.00
2023-05-11T12:19:12.133Z,540.00
2023-05-11T12:20:11.066Z,586.00
2023-05-11T12:21:11.082Z,622.00
2023-05-11T12:22:12.093Z,574.00
2023-05-11T12:23:12.172Z,619.00
2023-05-11T12:24:12.217Z,518.00
2023-05-11T12:25:12.250Z,491.00
2023-05-11T12:26:12.273Z,501.00
2023-05-11T12:27:12.317Z,531.00
2023-05-11T12:28:11.388Z,576.00
2023-05-11T12:29:11.414Z,582.00
2023-05-11T12:30:12.457Z,505.00
2023-05-11T12:31:12.500Z,500.00
2023-05-11T12:32:12.564Z,507.00
2023-05-11T12:33:12.576Z,530.00
2023-05-11T12:34:12.689Z,539.00
2023-05-11T12:35:12.621Z,578.00
2023-05-11T12:36:11.891Z,545.00
2023-05-11T12:37:13.229Z,543.00
2023-05-11T12:38:13.129Z,475.00
2023-05-11T12:39:11.940Z,512.00
2023-05-11T12:40:12.904Z,560.00
2023-05-11T12:41:12.968Z,536.00
2023-05-11T12:42:13.053Z,511.00
2023-05-11T12:43:13.002Z,581.00
2023-05-11T12:44:12.980Z,501.00
2023-05-11T12:45:13.045Z,533.00
2023-05-11T12:46:12.131Z,603.00
2023-05-11T12:47:13.086Z,499.00
2023-05-11T12:48:12.932Z,473.00
2023-05-11T12:49:12.933Z,500.00
2023-05-11T12:50:11.934Z,587.00
2023-05-11T12:51:12.211Z,590.00
2023-05-11T12:52:13.202Z,879.00
2023-05-11T12:53:12.240Z,1107.00
2023-05-11T12:54:13.508Z,1159.00
2023-05-11T12:55:13.194Z,792.00
2023-05-11T12:56:12.244Z,857.00
2023-05-11T12:57:12.057Z,908.00
2023-05-11T12:58:13.066Z,1057.00
2023-05-11T12:59:13.079Z,1394.00
2023-05-11T13:00:13.323Z,1176.00
2023-05-11T13:01:12.118Z,961.00
2023-05-11T13:02:12.218Z,1103.00
2023-05-11T13:03:13.278Z,1022.00
2023-05-11T13:04:13.131Z,902.00
2023-05-11T13:05:13.197Z,862.00
2023-05-11T13:06:13.201Z,1051.00
2023-05-11T13:07:13.248Z,848.00
2023-05-11T13:08:13.317Z,656.00
2023-05-11T13:09:12.347Z,643.00
2023-05-11T13:10:12.374Z,867.00
2023-05-11T13:11:13.421Z,1035.00
2023-05-11T13:12:13.517Z,1130.00
2023-05-11T13:13:13.539Z,966.00
2023-05-11T13:14:13.640Z,1035.00
2023-05-11T13:15:13.641Z,1045.00
2023-05-11T13:16:13.714Z,1105.00
2023-05-11T13:17:12.688Z,860.00
2023-05-11T13:18:14.463Z,657.00
2023-05-11T13:19:13.805Z,763.00
2023-05-11T13:20:13.696Z,822.00
2023-05-11T13:21:13.653Z,923.00
2023-05-11T13:22:12.638Z,896.00
2023-05-11T13:23:12.664Z,895.00
2023-05-11T13:24:12.646Z,753.00
2023-05-11T13:25:13.107Z,550.00
2023-05-11T13:26:13.705Z,582.00
2023-05-11T13:27:13.791Z,662.00
2023-05-11T13:29:48.816Z,500.00
2023-05-11T13:32:08.007Z,500.00
2023-05-11T13:33:09.000Z,500.00
2023-05-11T13:34:07.866Z,500.00
2023-05-11T13:35:07.855Z,500.00
2023-05-11T13:36:08.868Z,500.00
2023-05-11T13:37:08.875Z,553.00
2023-05-11T13:38:07.832Z,527.00
2023-05-11T13:39:07.817Z,466.00
2023-05-11T13:40:07.830Z,945.00
2023-05-11T13:41:07.801Z,1061.00
2023-05-11T13:42:08.827Z,533.00
2023-05-11T13:43:08.812Z,495.00
2023-05-11T13:44:08.966Z,573.00
2023-05-11T13:45:08.767Z,568.00
2023-05-11T13:46:07.833Z,606.00
2023-05-11T13:47:07.826Z,488.00
2023-05-11T13:48:07.792Z,436.00
2023-05-11T13:49:08.834Z,511.00
2023-05-11T13:50:07.799Z,473.00
2023-05-11T13:51:08.792Z,509.00
2023-05-11T13:52:07.784Z,521.00
2023-05-11T13:53:08.743Z,450.00
2023-05-11T13:54:08.705Z,510.00
2023-05-11T13:55:08.701Z,500.00
2023-05-11T13:56:08.764Z,506.00
2023-05-11T13:57:07.845Z,522.00
2023-05-11T13:58:07.685Z,646.00
2023-05-11T13:59:07.723Z,1056.00
2023-05-11T14:00:07.725Z,862.00
2023-05-11T14:01:08.703Z,685.00
2023-05-11T14:02:08.768Z,563.00
2023-05-11T14:03:08.879Z,603.00
2023-05-11T14:04:08.789Z,545.00
2023-05-11T14:05:08.758Z,587.00
2023-05-11T14:06:08.771Z,658.00
2023-05-11T14:07:08.766Z,655.00
2023-05-11T14:08:07.816Z,820.00
2023-05-11T14:09:07.779Z,809.00
2023-05-11T14:10:08.809Z,891.00
2023-05-11T14:11:08.859Z,797.00
2023-05-11T14:12:08.913Z,787.00
2023-05-11T14:13:07.956Z,749.00
2023-05-11T14:14:07.988Z,739.00
2023-05-11T14:15:08.055Z,767.00
2023-05-11T14:36:52.288Z,500.00
2023-05-11T14:37:52.299Z,500.00
2023-05-11T14:38:53.203Z,500.00
2023-05-11T14:39:53.182Z,500.00
2023-05-11T14:40:52.489Z,500.00
2023-05-11T14:41:52.154Z,500.00
2023-05-11T14:42:53.178Z,412.00
2023-05-11T14:43:52.217Z,439.00
2023-05-11T14:44:52.316Z,400.00
2023-05-11T14:45:53.129Z,400.00
2023-05-11T14:46:53.140Z,400.00
2023-05-11T14:47:52.145Z,492.00
2023-05-11T14:48:53.116Z,500.00
2023-05-11T14:49:53.099Z,479.00
2023-05-11T14:50:52.099Z,560.00
2023-05-11T14:51:53.061Z,541.00
2023-05-11T14:52:53.102Z,507.00
2023-05-11T14:53:52.046Z,400.00
2023-05-11T14:54:53.100Z,407.00
2023-05-11T14:55:53.052Z,522.00
2023-05-11T14:56:52.045Z,578.00
2023-05-11T14:57:52.039Z,594.00
2023-05-11T14:58:52.038Z,512.00
2023-05-11T14:59:59.585Z,400.00
2023-05-11T15:00:53.017Z,400.00
2023-05-11T15:01:52.059Z,400.00
2023-05-11T15:02:53.043Z,400.00
2023-05-11T15:03:53.036Z,400.00
2023-05-11T15:04:52.977Z,400.00
2023-05-11T15:05:51.972Z,400.00
2023-05-11T15:06:52.980Z,493.00
2023-05-11T15:07:51.957Z,476.00
2023-05-11T15:08:53.032Z,465.00
2023-05-11T15:09:52.962Z,500.00
2023-05-11T15:10:52.939Z,517.00
2023-05-11T15:11:52.944Z,512.00
2023-05-11T15:12:51.949Z,577.00
2023-05-11T15:13:52.913Z,500.00
2023-05-11T15:14:51.910Z,468.00
2023-05-11T15:15:52.980Z,536.00
2023-05-11T15:16:52.887Z,596.00
2023-05-11T15:17:52.933Z,663.00
2023-05-11T15:18:52.961Z,665.00
2023-05-11T15:19:51.873Z,742.00
2023-05-11T15:20:51.889Z,871.00
2023-05-11T15:21:52.853Z,952.00
2023-05-11T15:22:51.846Z,893.00
2023-05-11T15:23:51.833Z,1022.00
2023-05-11T15:24:51.877Z,1073.00
2023-05-11T15:25:51.840Z,1189.00
2023-05-11T15:26:52.822Z,1059.00
2023-05-11T15:27:51.812Z,1085.00
2023-05-11T15:28:52.811Z,1018.00
2023-05-11T15:29:51.799Z,1174.00
2023-05-11T18:08:23.194Z,500.00
2023-05-11T18:09:24.082Z,500.00
2023-05-11T18:10:24.169Z,500.00
2023-05-11T18:11:22.979Z,500.00
2023-05-11T18:12:23.982Z,500.00
2023-05-11T18:13:22.991Z,500.00
2023-05-11T18:14:23.983Z,400.00
2023-05-11T18:15:23.964Z,400.00
2023-05-11T18:16:24.003Z,400.00
2023-05-11T18:17:23.936Z,400.00
2023-05-11T18:18:23.016Z,400.00
2023-05-11T18:19:22.904Z,400.00
2023-05-11T18:20:22.915Z,400.00
2023-05-11T18:21:23.990Z,400.00
2023-05-11T18:22:23.904Z,400.00
2023-05-11T18:23:22.889Z,400.00
2023-05-11T18:24:22.912Z,400.00
2023-05-11T18:25:22.874Z,400.00
2023-05-11T18:26:23.853Z,400.00
2023-05-11T18:27:23.903Z,400.00
2023-05-11T18:28:23.860Z,400.00
2023-05-11T18:29:23.852Z,400.00
2023-05-11T18:30:22.987Z,400.00
2023-05-11T18:31:22.886Z,400.00
2023-05-11T18:32:23.815Z,400.00
2023-05-11T18:33:22.921Z,400.00
2023-05-11T18:34:22.827Z,400.00
2023-05-11T18:35:22.804Z,400.00
2023-05-11T18:36:23.826Z,400.00
2023-05-11T18:37:23.826Z,400.00
2023-05-11T18:38:23.844Z,400.00
2023-05-11T18:39:22.912Z,411.00
2023-05-11T18:40:22.909Z,441.00
2023-05-11T18:41:22.938Z,469.00
2023-05-11T18:42:22.953Z,500.00
2023-05-11T18:43:23.990Z,504.00
2023-05-11T18:44:23.022Z,499.00
2023-05-11T18:45:24.052Z,500.00
2023-05-11T18:46:24.068Z,505.00
2023-05-11T18:47:24.117Z,500.00
2023-05-11T18:48:24.142Z,502.00
2023-05-11T18:49:24.201Z,500.00
2023-05-11T18:50:24.241Z,512.00
2023-05-11T18:51:24.265Z,501.00
2023-05-11T18:52:23.287Z,531.00
2023-05-11T18:53:24.344Z,531.00
2023-05-11T18:54:23.360Z,534.00
2023-05-11T18:55:24.405Z,508.00
2023-05-11T18:56:24.456Z,518.00
2023-05-11T18:57:24.499Z,534.00
2023-05-11T18:58:24.476Z,543.00
2023-05-11T18:59:24.514Z,554.00
2023-05-11T19:00:24.533Z,546.00
2023-05-11T19:01:33.133Z,528.00
2023-05-11T19:02:24.644Z,529.00
2023-05-11T19:03:23.575Z,529.00
2023-05-11T19:04:23.512Z,533.00
2023-05-11T19:05:23.536Z,538.00
2023-05-11T19:06:24.520Z,545.00
2023-05-11T19:07:24.529Z,550.00
2023-05-11T19:08:24.504Z,565.00
2023-05-11T19:09:23.532Z,568.00
2023-05-11T19:10:24.506Z,553.00
2023-05-11T19:11:24.475Z,530.00
2023-05-11T19:12:24.500Z,547.00
2023-05-11T19:13:24.479Z,549.00
2023-05-11T19:14:24.468Z,537.00
2023-05-11T19:15:23.500Z,534.00
2023-05-11T19:16:24.476Z,563.00
2023-05-11T19:17:24.532Z,578.00
2023-05-11T19:18:23.463Z,570.00
2023-05-11T19:19:24.424Z,578.00
2023-05-11T19:20:24.451Z,570.00
2023-05-11T19:21:24.453Z,567.00
2023-05-11T19:22:24.412Z,570.00
2023-05-11T19:23:24.449Z,595.00
2023-05-11T19:24:24.393Z,602.00
2023-05-11T19:25:24.387Z,605.00
2023-05-11T19:26:24.378Z,604.00
2023-05-11T19:27:24.388Z,606.00
2023-05-11T19:28:24.451Z,621.00
2023-05-11T19:29:24.375Z,615.00
2023-05-11T19:30:24.370Z,618.00
2023-05-11T19:31:23.394Z,613.00
2023-05-11T19:32:23.533Z,632.00
2023-05-11T19:33:24.382Z,664.00
2023-05-11T19:34:24.326Z,664.00
2023-05-11T19:35:23.315Z,637.00
2023-05-11T19:36:24.308Z,618.00
2023-05-11T19:37:24.348Z,624.00
2023-05-11T19:38:23.315Z,628.00
2023-05-11T19:39:24.395Z,663.00
2023-05-11T19:40:43.732Z,765.00
2023-05-11T19:41:24.286Z,766.00
2023-05-11T19:42:38.444Z,752.00
2023-05-11T19:43:24.284Z,749.00
2023-05-11T19:44:24.276Z,620.00
2023-05-11T19:45:23.277Z,569.00
2023-05-11T19:46:24.357Z,578.00
2023-05-11T19:47:23.257Z,552.00
2023-05-11T19:48:23.260Z,568.00
2023-05-11T19:49:24.239Z,619.00
2023-05-11T19:50:24.854Z,660.00
2023-05-11T19:51:24.241Z,704.00
2023-05-11T19:52:24.211Z,651.00
2023-05-11T19:53:24.216Z,615.00
2023-05-11T19:54:23.186Z,580.00
2023-05-11T19:55:24.187Z,544.00
2023-05-11T19:56:24.183Z,500.00
2023-05-11T19:57:23.212Z,500.00
2023-05-11T19:58:24.174Z,497.00
2023-05-11T19:59:24.177Z,503.00
2023-05-11T20:00:23.178Z,543.00
2023-05-11T20:01:23.179Z,592.00
2023-05-11T20:02:24.212Z,631.00
2023-05-11T20:03:25.268Z,655.00
2023-05-11T20:04:24.118Z,642.00
2023-05-11T20:05:24.131Z,650.00
2023-05-11T20:06:24.126Z,623.00
2023-05-11T20:07:24.120Z,584.00
2023-05-11T20:08:23.103Z,594.00
2023-05-11T20:09:24.736Z,572.00
2023-05-11T20:10:24.086Z,555.00
2023-05-11T20:11:23.076Z,555.00
2023-05-11T20:12:23.071Z,600.00
2023-05-11T20:13:23.064Z,576.00
2023-05-11T20:14:24.078Z,605.00
2023-05-11T20:15:24.107Z,594.00
2023-05-11T20:16:23.118Z,585.00
2023-05-11T20:17:24.084Z,588.00
2023-05-11T20:18:23.047Z,586.00
2023-05-11T20:19:24.019Z,581.00
2023-05-11T20:20:24.018Z,566.00
2023-05-11T20:21:24.038Z,541.00
2023-05-11T20:22:23.997Z,534.00
2023-05-11T20:23:23.022Z,585.00
2023-05-11T20:24:23.978Z,610.00
2023-05-11T20:25:23.978Z,656.00
2023-05-11T20:26:22.967Z,649.00
2023-05-11T20:27:23.982Z,599.00
2023-05-11T20:28:22.998Z,529.00
2023-05-11T20:29:23.017Z,507.00
2023-05-11T20:30:23.085Z,514.00
2023-05-11T20:31:24.145Z,520.00
2023-05-11T20:32:23.154Z,500.00
2023-05-11T20:34:23.203Z,518.00
2023-05-11T20:35:23.150Z,501.00
2023-05-11T20:36:24.127Z,500.00
2023-05-11T20:37:23.125Z,501.00
2023-05-11T20:38:24.111Z,519.00
2023-05-11T20:39:23.136Z,545.00
2023-05-11T20:40:23.123Z,580.00
2023-05-11T20:41:23.089Z,539.00
2023-05-11T20:42:24.080Z,507.00
2023-05-11T20:43:23.069Z,504.00
2023-05-11T20:44:23.057Z,506.00
2023-05-11T20:45:24.128Z,506.00
2023-05-11T20:46:23.091Z,516.00
2023-05-11T20:47:23.062Z,542.00
2023-05-11T20:48:38.537Z,550.00
2023-05-11T20:49:37.595Z,552.00
2023-05-11T20:50:24.028Z,553.00
2023-05-11T20:51:23.086Z,563.00
2023-05-11T20:52:23.038Z,573.00
2023-05-11T20:53:24.006Z,576.00
2023-05-11T20:54:23.019Z,587.00
2023-05-11T20:55:23.990Z,585.00
2023-05-11T20:56:22.976Z,592.00
2023-05-11T20:57:23.981Z,577.00
2023-05-11T20:58:22.962Z,562.00
2023-05-11T21:00:23.160Z,537.00
2023-05-11T21:01:23.046Z,537.00
2023-05-11T21:02:24.009Z,551.00
2023-05-11T21:03:24.030Z,564.00
2023-05-11T21:04:23.043Z,554.00
2023-05-11T21:05:25.417Z,528.00
2023-05-11T21:06:24.111Z,501.00
2023-05-11T21:07:23.148Z,498.00
2023-05-11T21:08:24.178Z,501.00
2023-05-11T21:09:23.272Z,519.00
2023-05-11T21:10:23.284Z,522.00
2023-05-11T21:11:24.315Z,516.00
2023-05-11T21:12:23.297Z,509.00
2023-05-11T21:13:24.317Z,527.00
2023-05-11T21:14:23.333Z,501.00
2023-05-11T21:15:24.379Z,500.00
2023-05-11T21:16:24.431Z,506.00
2023-05-11T21:17:24.452Z,499.00
2023-05-11T21:18:23.425Z,500.00
2023-05-11T21:19:24.455Z,515.00
2023-05-11T21:20:24.425Z,527.00
2023-05-11T21:21:24.490Z,512.00
2023-05-11T21:22:24.537Z,500.00
2023-05-11T21:23:23.572Z,515.00
2023-05-11T21:24:24.594Z,545.00
2023-05-11T21:25:24.665Z,521.00
2023-05-11T21:26:23.705Z,509.00
2023-05-11T21:27:24.727Z,500.00
2023-05-11T21:28:24.763Z,518.00
2023-05-11T21:29:24.797Z,546.00
2023-05-11T21:30:24.819Z,548.00
2023-05-11T21:31:23.861Z,552.00
2023-05-11T21:32:24.922Z,591.00
2023-05-11T21:33:24.892Z,602.00
2023-05-11T21:34:24.929Z,599.00
2023-05-11T21:35:24.955Z,587.00
2023-05-11T21:36:24.987Z,559.00
2023-05-11T21:37:25.009Z,576.00
2023-05-11T21:38:24.051Z,545.00
2023-05-11T21:39:24.061Z,508.00
2023-05-11T21:40:25.079Z,532.00
2023-05-11T21:41:25.080Z,541.00
2023-05-11T21:42:24.116Z,538.00
2023-05-11T21:43:24.181Z,504.00
2023-05-11T21:44:24.207Z,494.00
2023-05-11T21:45:25.240Z,518.00
2023-05-11T21:46:25.266Z,548.00
2023-05-11T21:47:25.356Z,560.00
2023-05-11T21:48:24.324Z,584.00
2023-05-11T21:49:25.389Z,621.00
2023-05-11T21:50:24.430Z,660.00
2023-05-11T21:51:25.404Z,681.00
2023-05-11T21:52:25.478Z,728.00
2023-05-11T21:53:25.493Z,802.00
2023-05-11T21:54:24.540Z,845.00
2023-05-11T21:55:24.592Z,828.00
2023-05-11T21:56:25.654Z,717.00
2023-05-11T21:57:24.639Z,808.00
2023-05-11T21:58:25.721Z,870.00
2023-05-11T21:59:24.713Z,882.00
2023-05-11T22:00:25.764Z,866.00
2023-05-11T22:01:25.944Z,696.00
2023-05-11T22:02:25.945Z,664.00
2023-05-11T22:03:25.982Z,670.00
2023-05-11T22:04:25.914Z,662.00
2023-05-11T22:05:25.977Z,626.00
2023-05-11T22:06:24.969Z,607.00
2023-05-11T22:07:24.995Z,640.00
2023-05-11T22:08:26.060Z,661.00